Time;durP1;ratioP1;P1;durP2;ratioP2;P2;SDS_P1;SDS_P2;PMS_P1;PMS_P2;Temp;Humidity;BMP_temperature;BMP_pressure;BME280_temperature;BME280_humidity;BME280_pressure;Samples;Min_cycle;Max_cycle;Signal;HPM_P1;HPM_P2
2022/06/27 00:01:22;;;;;;;18.05;8.40;;;;;;;;;;4864196;29;20064;-71
2022/06/27 00:03:52;;;;;;;20.35;9.48;;;;;;;;;;4897304;29;20052;-71
2022/06/27 00:06:23;;;;;;;18.85;8.98;;;;;;;;;;4879409;29;20505;-70
2022/06/27 00:08:53;;;;;;;17.23;8.52;;;;;;;;;;4897042;29;20040;-71
2022/06/27 00:11:23;;;;;;;19.85;8.18;;;;;;;;;;4897013;29;20048;-71
2022/06/27 00:13:53;;;;;;;18.38;9.25;;;;;;;;;;4879311;29;20057;-71
2022/06/27 00:16:24;;;;;;;16.88;8.13;;;;;;;;;;4896890;29;20048;-71
2022/06/27 00:19:15;;;;;;;17.23;8.32;;;;;;;;;;4897006;29;20413;-72
2022/06/27 00:21:46;;;;;;;18.65;8.30;;;;;;;;;;4864153;29;20056;-71
2022/06/27 00:24:16;;;;;;;14.73;8.43;;;;;;;;;;4896880;29;20404;-71
2022/06/27 00:26:46;;;;;;;17.23;8.43;;;;;;;;;;4897183;29;20061;-71
2022/06/27 00:29:17;;;;;;;18.92;7.90;;;;;;;;;;4897195;29;20064;-71
2022/06/27 00:31:47;;;;;;;18.52;7.95;;;;;;;;;;4879369;29;20056;-70
2022/06/27 00:34:18;;;;;;;18.02;8.50;;;;;;;;;;4864259;29;20489;-71
2022/06/27 00:36:50;;;;;;;16.67;7.90;;;;;;;;;;4875593;29;20060;-70
2022/06/27 00:39:20;;;;;;;15.68;7.60;;;;;;;;;;4875777;29;20080;-71
2022/06/27 00:41:51;;;;;;;16.20;8.07;;;;;;;;;;4856961;29;20058;-70
2022/06/27 00:44:31;;;;;;;15.55;7.43;;;;;;;;;;4857469;29;20078;-70
2022/06/27 00:47:03;;;;;;;22.45;8.20;;;;;;;;;;4857338;29;20061;-70
2022/06/27 00:49:35;;;;;;;17.13;8.13;;;;;;;;;;4838560;29;20054;-70
2022/06/27 00:52:09;;;;;;;15.88;8.07;;;;;;;;;;4838724;29;20061;-70
2022/06/27 00:54:41;;;;;;;22.33;8.65;;;;;;;;;;4838579;29;20058;-71
2022/06/27 00:57:14;;;;;;;18.67;9.23;;;;;;;;;;4808298;29;20046;-70
2022/06/27 00:59:46;;;;;;;19.27;9.20;;;;;;;;;;4838500;29;20065;-70
2022/06/27 01:02:16;;;;;;;21.88;9.40;;;;;;;;;;4820090;29;20073;-71
2022/06/27 01:04:47;;;;;;;20.83;9.27;;;;;;;;;;4820047;29;20070;-70
2022/06/27 01:07:17;;;;;;;20.77;9.57;;;;;;;;;;4820248;29;20425;-71
2022/06/27 01:09:48;;;;;;;19.88;8.93;;;;;;;;;;4791218;29;20073;-70
2022/06/27 01:12:19;;;;;;;17.88;8.75;;;;;;;;;;4805539;29;20062;-71
2022/06/27 01:14:49;;;;;;;18.13;8.55;;;;;;;;;;4817215;29;20078;-71
2022/06/27 01:17:20;;;;;;;18.10;8.43;;;;;;;;;;4808565;29;20061;-71
2022/06/27 01:19:50;;;;;;;16.92;9.32;;;;;;;;;;4817052;29;20069;-70
2022/06/27 01:22:23;;;;;;;17.52;8.38;;;;;;;;;;4805399;29;20057;-70
2022/06/27 01:24:54;;;;;;;18.67;8.60;;;;;;;;;;4787141;30;20530;-71
2022/06/27 01:27:24;;;;;;;19.88;8.20;;;;;;;;;;4787470;30;20067;-70
2022/06/27 01:29:56;;;;;;;16.17;8.10;;;;;;;;;;4787205;29;20063;-70
2022/06/27 01:32:29;;;;;;;17.38;8.02;;;;;;;;;;4790232;29;20632;-71
2022/06/27 01:35:00;;;;;;;17.65;7.63;;;;;;;;;;4790224;29;20051;-69
2022/06/27 01:37:30;;;;;;;16.00;7.97;;;;;;;;;;4787135;30;20066;-70
2022/06/27 01:40:01;;;;;;;19.67;7.90;;;;;;;;;;4786919;30;20062;-69
2022/06/27 01:42:33;;;;;;;15.25;8.07;;;;;;;;;;4787097;30;20074;-69
2022/06/27 01:45:07;;;;;;;19.30;8.13;;;;;;;;;;4757803;30;20059;-70
2022/06/27 01:47:38;;;;;;;16.25;8.43;;;;;;;;;;4775097;29;20389;-70
2022/06/27 01:50:14;;;;;;;18.65;8.30;;;;;;;;;;4815209;29;20058;-69
2022/06/27 01:52:50;;;;;;;18.98;7.57;;;;;;;;;;4823069;29;20051;-70
2022/06/27 01:55:21;;;;;;;15.40;7.85;;;;;;;;;;4772236;30;20055;-70
2022/06/27 01:57:52;;;;;;;20.67;8.02;;;;;;;;;;4798533;29;20058;-71
2022/06/27 02:00:24;;;;;;;16.80;7.90;;;;;;;;;;4815997;29;20484;-70
2022/06/27 02:03:00;;;;;;;14.77;7.45;;;;;;;;;;4810807;29;20081;-70
2022/06/27 02:05:39;;;;;;;18.65;8.07;;;;;;;;;;4758528;30;20059;-70
2022/06/27 02:08:10;;;;;;;15.68;7.13;;;;;;;;;;4773914;30;20059;-70
2022/06/27 02:10:41;;;;;;;17.00;7.40;;;;;;;;;;4750757;30;20083;-70
2022/06/27 02:13:13;;;;;;;16.67;7.00;;;;;;;;;;4736701;30;20067;-70
2022/06/27 02:16:07;;;;;;;14.25;6.50;;;;;;;;;;4737451;30;20074;-70
2022/06/27 02:18:39;;;;;;;15.25;6.78;;;;;;;;;;4733090;30;20053;-70
2022/06/27 02:21:16;;;;;;;16.02;7.32;;;;;;;;;;4733116;30;20082;-70
2022/06/27 02:23:48;;;;;;;20.02;8.32;;;;;;;;;;4732253;30;20060;-70
2022/06/27 02:26:20;;;;;;;;;;;;;;;;;;4733649;30;20072;-70
2022/06/27 02:28:54;;;;;;;17.35;7.82;;;;;;;;;;4749429;30;19926;-70
2022/06/27 02:31:26;;;;;;;18.17;8.38;;;;;;;;;;4750742;30;20060;-70
2022/06/27 02:33:58;;;;;;;18.98;7.85;;;;;;;;;;4815257;29;20062;-70
2022/06/27 02:36:37;;;;;;;17.80;8.20;;;;;;;;;;4770932;30;20059;-70
2022/06/27 02:39:10;;;;;;;27.75;9.38;;;;;;;;;;4802947;29;20439;-70
2022/06/27 02:41:42;;;;;;;19.35;8.35;;;;;;;;;;4789699;29;20059;-70
2022/06/27 02:44:14;;;;;;;23.80;9.13;;;;;;;;;;4822048;29;20427;-70
2022/06/27 02:46:45;;;;;;;;;;;;;;;;;;4822580;29;20054;-70
2022/06/27 02:49:17;;;;;;;22.23;9.18;;;;;;;;;;4766824;30;19968;-70
2022/06/27 02:52:01;;;;;;;19.85;9.68;;;;;;;;;;4786376;30;20064;-70
2022/06/27 02:54:40;;;;;;;16.25;8.18;;;;;;;;;;4803535;29;20062;-70
2022/06/27 02:57:36;;;;;;;16.85;7.60;;;;;;;;;;4804095;29;20062;-70
2022/06/27 03:00:09;;;;;;;16.48;8.05;;;;;;;;;;4822036;29;20051;-70
2022/06/27 03:02:43;;;;;;;16.95;8.63;;;;;;;;;;4806847;29;20058;-70
2022/06/27 03:05:35;;;;;;;19.02;7.95;;;;;;;;;;4822000;29;20054;-70
2022/06/27 03:08:05;;;;;;;19.70;8.88;;;;;;;;;;4821944;29;20415;-70
2022/06/27 03:10:39;;;;;;;21.38;8.23;;;;;;;;;;4822029;29;20136;-71
2022/06/27 03:13:10;;;;;;;16.58;8.30;;;;;;;;;;4807261;29;20061;-70
2022/06/27 03:15:40;;;;;;;20.08;9.07;;;;;;;;;;4839278;29;20061;-70
2022/06/27 03:18:15;;;;;;;17.65;8.32;;;;;;;;;;4806237;29;20055;-70
2022/06/27 03:20:55;;;;;;;20.65;9.02;;;;;;;;;;4809832;29;20054;-70
2022/06/27 03:23:34;;;;;;;15.98;8.02;;;;;;;;;;4858288;29;20052;-71
2022/06/27 03:26:05;;;;;;;23.48;9.93;;;;;;;;;;4776298;29;20615;-71
2022/06/27 03:28:36;;;;;;;20.45;9.77;;;;;;;;;;4776292;29;20062;-70
2022/06/27 03:31:07;;;;;;;21.13;9.93;;;;;;;;;;4777141;29;20420;-70
2022/06/27 03:33:41;;;;;;;20.10;9.75;;;;;;;;;;4799396;29;20082;-70
2022/06/27 03:36:29;;;;;;;19.63;9.50;;;;;;;;;;4785740;29;20059;-70
2022/06/27 03:39:01;;;;;;;20.17;9.63;;;;;;;;;;4788103;29;20058;-70
2022/06/27 03:41:32;;;;;;;19.20;9.35;;;;;;;;;;4805813;29;20065;-70
2022/06/27 03:44:04;;;;;;;22.48;9.82;;;;;;;;;;4821547;29;20058;-70
2022/06/27 03:46:36;;;;;;;24.25;9.77;;;;;;;;;;4821082;29;20057;-70
2022/06/27 03:52:02;;;;;;;23.40;9.98;;;;;;;;;;4839288;29;20073;-70
2022/06/27 03:54:32;;;;;;;21.10;9.73;;;;;;;;;;4824830;29;20067;-70
2022/06/27 03:57:03;;;;;;;18.98;9.73;;;;;;;;;;4820628;29;20129;-71
2022/06/27 03:59:33;;;;;;;20.40;9.95;;;;;;;;;;4802646;29;20062;-70
2022/06/27 04:02:04;;;;;;;23.80;9.85;;;;;;;;;;4784595;29;20143;-69
2022/06/27 04:04:51;;;;;;;22.00;10.48;;;;;;;;;;4749662;30;20060;-69
2022/06/27 04:07:21;;;;;;;21.50;9.23;;;;;;;;;;4749278;30;20060;-69
2022/06/27 04:09:52;;;;;;;20.42;9.73;;;;;;;;;;4749112;30;20089;-69
2022/06/27 04:12:23;;;;;;;23.17;10.80;;;;;;;;;;4716316;30;20518;-69
2022/06/27 04:15:12;;;;;;;24.52;10.45;;;;;;;;;;4715071;30;20057;-70
2022/06/27 04:18:03;;;;;;;22.85;10.55;;;;;;;;;;4749084;30;20056;-71
2022/06/27 04:20:52;;;;;;;21.63;9.65;;;;;;;;;;4749084;30;20048;-70
2022/06/27 04:23:25;;;;;;;20.05;10.45;;;;;;;;;;4766472;30;20065;-70
2022/06/27 04:26:14;;;;;;;21.45;9.95;;;;;;;;;;4767265;30;20055;-70
2022/06/27 04:28:45;;;;;;;20.00;9.15;;;;;;;;;;4748468;30;20048;-70
2022/06/27 04:31:17;;;;;;;18.50;8.95;;;;;;;;;;4730706;30;20079;-69
2022/06/27 04:33:48;;;;;;;20.58;9.60;;;;;;;;;;4728949;30;20410;-70
2022/06/27 04:36:18;;;;;;;19.15;10.02;;;;;;;;;;4731082;30;20114;-70
2022/06/27 04:38:48;;;;;;;21.35;9.50;;;;;;;;;;4748307;30;20069;-70
2022/06/27 04:41:37;;;;;;;19.20;10.05;;;;;;;;;;4738835;30;20060;-70
2022/06/27 04:44:07;;;;;;;25.25;9.98;;;;;;;;;;4766573;30;20064;-70
2022/06/27 04:46:40;;;;;;;19.67;9.07;;;;;;;;;;4739561;30;20060;-70
2022/06/27 04:49:29;;;;;;;21.08;9.60;;;;;;;;;;4765578;30;20068;-70
2022/06/27 04:52:00;;;;;;;;;;;;;;;;;;4734689;30;20075;-69
2022/06/27 04:54:30;;;;;;;18.95;9.10;;;;;;;;;;4764716;30;19949;-70
2022/06/27 04:57:01;;;;;;;19.35;9.68;;;;;;;;;;4769877;30;20070;-70
2022/06/27 04:59:34;;;;;;;19.25;9.32;;;;;;;;;;4769938;30;20064;-69
2022/06/27 05:02:25;;;;;;;20.98;9.65;;;;;;;;;;4787461;30;20082;-70
2022/06/27 05:04:56;;;;;;;18.17;8.65;;;;;;;;;;4775370;29;20061;-69
2022/06/27 05:07:28;;;;;;;19.25;9.43;;;;;;;;;;4711651;30;20057;-70
2022/06/27 05:09:59;;;;;;;20.40;9.02;;;;;;;;;;4733118;30;20060;-69
2022/06/27 05:12:31;;;;;;;20.65;10.15;;;;;;;;;;4769462;30;20207;-69
2022/06/27 05:15:02;;;;;;;23.38;10.55;;;;;;;;;;4787457;30;20086;-69
2022/06/27 05:17:32;;;;;;;23.70;11.43;;;;;;;;;;4817186;29;20097;-69
2022/06/27 05:20:04;;;;;;;22.65;9.50;;;;;;;;;;4787256;30;20054;-69
2022/06/27 05:22:35;;;;;;;20.77;9.73;;;;;;;;;;4769121;30;20056;-69
2022/06/27 05:25:07;;;;;;;22.67;9.90;;;;;;;;;;4775456;29;20044;-70
2022/06/27 05:27:38;;;;;;;22.17;10.10;;;;;;;;;;4759746;30;20078;-69
2022/06/27 05:30:09;;;;;;;23.38;11.07;;;;;;;;;;4726660;30;20418;-70
2022/06/27 05:32:40;;;;;;;23.92;10.88;;;;;;;;;;4709809;30;20049;-69
2022/06/27 05:35:11;;;;;;;23.35;10.30;;;;;;;;;;4733862;30;20060;-69
2022/06/27 05:37:43;;;;;;;23.85;9.57;;;;;;;;;;4719304;30;20138;-70
2022/06/27 05:40:15;;;;;;;22.08;10.20;;;;;;;;;;4704919;30;20522;-70
2022/06/27 05:42:47;;;;;;;21.25;9.20;;;;;;;;;;4724010;30;20061;-70
2022/06/27 05:45:18;;;;;;;20.25;8.85;;;;;;;;;;4743411;30;20518;-70
2022/06/27 05:48:09;;;;;;;21.95;10.80;;;;;;;;;;4726861;30;20662;-70
2022/06/27 05:50:51;;;;;;;20.15;9.90;;;;;;;;;;4768100;30;20057;-70
2022/06/27 05:53:22;;;;;;;23.48;9.75;;;;;;;;;;4715588;30;20056;-70
2022/06/27 05:55:53;;;;;;;24.17;10.10;;;;;;;;;;4736231;30;20056;-70
2022/06/27 05:58:25;;;;;;;22.45;10.60;;;;;;;;;;4768779;30;20173;-69
2022/06/27 06:00:55;;;;;;;24.77;10.15;;;;;;;;;;4738067;30;20056;-69
2022/06/27 06:03:26;;;;;;;22.65;10.38;;;;;;;;;;4724968;30;20064;-70
2022/06/27 06:05:57;;;;;;;23.90;10.70;;;;;;;;;;4732981;30;20068;-69
2022/06/27 06:08:28;;;;;;;26.08;10.85;;;;;;;;;;4747939;30;20529;-70
2022/06/27 06:10:59;;;;;;;21.13;9.77;;;;;;;;;;4742386;30;20058;-69
2022/06/27 06:13:30;;;;;;;21.25;10.75;;;;;;;;;;4698532;30;20074;-70
2022/06/27 06:16:03;;;;;;;20.42;9.57;;;;;;;;;;4698707;30;20551;-69
2022/06/27 06:18:35;;;;;;;26.17;10.85;;;;;;;;;;4715667;30;20447;-70
2022/06/27 06:21:05;;;;;;;22.45;11.00;;;;;;;;;;4729452;30;20057;-69
2022/06/27 06:23:36;;;;;;;23.98;10.65;;;;;;;;;;4745883;30;20056;-69
2022/06/27 06:26:07;;;;;;;24.70;11.32;;;;;;;;;;4750982;30;20068;-69
2022/06/27 06:28:38;;;;;;;24.95;11.25;;;;;;;;;;4765434;30;20056;-69
2022/06/27 06:31:08;;;;;;;29.23;11.07;;;;;;;;;;4731703;30;20073;-70
2022/06/27 06:33:39;;;;;;;25.92;10.93;;;;;;;;;;4732758;30;20067;-69
2022/06/27 06:36:11;;;;;;;31.13;11.25;;;;;;;;;;4760074;30;20187;-70
2022/06/27 06:38:42;;;;;;;30.42;11.48;;;;;;;;;;4777928;30;20491;-69
2022/06/27 06:41:13;;;;;;;28.85;11.77;;;;;;;;;;4776179;30;20063;-70
2022/06/27 06:43:45;;;;;;;26.48;11.40;;;;;;;;;;4778053;30;20059;-70
2022/06/27 06:46:39;;;;;;;25.45;11.27;;;;;;;;;;4822696;29;20050;-70
2022/06/27 06:49:15;;;;;;;27.98;11.73;;;;;;;;;;4839972;29;20057;-70
2022/06/27 06:51:45;;;;;;;30.52;11.75;;;;;;;;;;4840506;29;20498;-69
2022/06/27 06:54:17;;;;;;;29.88;11.57;;;;;;;;;;4840489;29;20062;-70
2022/06/27 06:56:49;;;;;;;25.17;11.45;;;;;;;;;;4826992;29;20422;-69
2022/06/27 06:59:20;;;;;;;26.67;11.27;;;;;;;;;;4835729;29;20396;-69
2022/06/27 07:01:50;;;;;;;25.83;11.05;;;;;;;;;;4840337;29;20065;-70
2022/06/27 07:04:20;;;;;;;26.10;12.10;;;;;;;;;;4840377;29;20427;-70
2022/06/27 07:06:53;;;;;;;29.63;11.00;;;;;;;;;;4839986;29;20064;-69
2022/06/27 07:09:23;;;;;;;27.38;10.95;;;;;;;;;;4802446;29;20054;-69
2022/06/27 07:11:55;;;;;;;26.08;11.10;;;;;;;;;;4803864;29;20106;-71
2022/06/27 07:14:27;;;;;;;25.85;10.85;;;;;;;;;;4817459;29;20054;-70
2022/06/27 07:16:58;;;;;;;23.95;9.10;;;;;;;;;;4821815;29;20059;-72
2022/06/27 07:19:29;;;;;;;20.30;9.02;;;;;;;;;;4822199;29;20117;-70
2022/06/27 07:21:59;;;;;;;22.33;9.73;;;;;;;;;;4836665;29;20066;-70
2022/06/27 07:24:30;;;;;;;24.48;10.55;;;;;;;;;;4843563;29;20441;-70
2022/06/27 07:27:01;;;;;;;26.67;10.15;;;;;;;;;;4880237;29;20060;-69
2022/06/27 07:29:32;;;;;;;20.30;9.15;;;;;;;;;;4897966;29;20059;-70
2022/06/27 07:32:04;;;;;;;23.90;9.68;;;;;;;;;;4897702;29;20048;-70
2022/06/27 07:34:38;;;;;;;23.52;10.73;;;;;;;;;;4896717;29;20048;-70
2022/06/27 07:37:09;;;;;;;23.05;10.32;;;;;;;;;;4876477;29;20045;-70
2022/06/27 07:39:40;;;;;;;25.30;10.35;;;;;;;;;;4861629;29;20057;-70
2022/06/27 07:42:11;;;;;;;24.13;8.77;;;;;;;;;;4876664;29;20087;-70
2022/06/27 07:44:41;;;;;;;21.05;8.70;;;;;;;;;;4876740;29;20060;-70
2022/06/27 07:47:12;;;;;;;18.38;8.13;;;;;;;;;;4876752;29;20161;-70
2022/06/27 07:49:42;;;;;;;19.90;8.85;;;;;;;;;;4876629;29;20521;-70
2022/06/27 07:52:12;;;;;;;20.60;9.40;;;;;;;;;;4876386;29;20085;-70
2022/06/27 07:54:43;;;;;;;22.58;9.63;;;;;;;;;;4876642;29;20057;-70
2022/06/27 07:57:14;;;;;;;27.48;9.45;;;;;;;;;;4845764;29;20414;-70
2022/06/27 07:59:45;;;;;;;26.52;10.15;;;;;;;;;;4839354;29;20395;-70
2022/06/27 08:02:14;;;;;;;24.92;10.48;;;;;;;;;;4839294;29;20058;-70
2022/06/27 08:04:45;;;;;;;24.20;9.65;;;;;;;;;;4839215;29;20064;-70
2022/06/27 08:07:15;;;;;;;26.73;9.82;;;;;;;;;;4839363;29;20046;-70
2022/06/27 08:09:46;;;;;;;25.48;10.10;;;;;;;;;;4839263;29;20060;-70
2022/06/27 08:12:16;;;;;;;24.15;9.68;;;;;;;;;;4795130;29;20066;-70
2022/06/27 08:14:47;;;;;;;25.27;9.52;;;;;;;;;;4821049;29;20054;-70
2022/06/27 08:17:18;;;;;;;22.27;9.23;;;;;;;;;;4839172;29;20061;-70
2022/06/27 08:19:49;;;;;;;25.75;9.38;;;;;;;;;;4838548;29;20066;-70
2022/06/27 08:22:24;;;;;;;24.80;8.68;;;;;;;;;;4839313;29;20076;-70
2022/06/27 08:24:54;;;;;;;22.00;8.85;;;;;;;;;;4839308;29;20058;-70
2022/06/27 08:27:26;;;;;;;28.00;9.75;;;;;;;;;;4808587;29;20423;-70
2022/06/27 08:29:57;;;;;;;28.10;10.57;;;;;;;;;;4839204;29;20063;-70
2022/06/27 08:32:27;;;;;;;22.13;8.85;;;;;;;;;;4839173;29;20066;-70
2022/06/27 08:34:58;;;;;;;23.38;9.15;;;;;;;;;;4809114;29;20518;-70
2022/06/27 08:37:28;;;;;;;22.60;9.43;;;;;;;;;;4859030;29;20061;-70
2022/06/27 08:39:59;;;;;;;23.00;9.40;;;;;;;;;;4875970;29;20439;-70
2022/06/27 08:42:30;;;;;;;22.52;9.50;;;;;;;;;;4860366;29;20057;-70
2022/06/27 08:45:02;;;;;;;25.52;9.13;;;;;;;;;;4844808;29;20053;-70
2022/06/27 08:47:32;;;;;;;24.08;9.13;;;;;;;;;;4861021;29;20064;-70
2022/06/27 08:50:03;;;;;;;20.42;9.30;;;;;;;;;;4875907;29;20143;-70
2022/06/27 08:52:34;;;;;;;27.13;8.55;;;;;;;;;;4887736;29;20060;-70
2022/06/27 08:55:09;;;;;;;23.08;8.50;;;;;;;;;;4879696;29;20056;-71
2022/06/27 08:57:45;;;;;;;20.85;8.23;;;;;;;;;;4897079;29;20512;-70
2022/06/27 09:00:17;;;;;;;22.17;9.07;;;;;;;;;;4894451;29;20061;-70
2022/06/27 09:02:48;;;;;;;22.13;7.90;;;;;;;;;;4894507;29;20052;-70
2022/06/27 09:05:30;;;;;;;21.75;9.25;;;;;;;;;;4878968;29;20056;-70
2022/06/27 09:08:04;;;;;;;24.38;9.50;;;;;;;;;;4851893;29;20061;-70
2022/06/27 09:10:39;;;;;;;21.80;9.05;;;;;;;;;;4894682;29;20053;-70
2022/06/27 09:13:16;;;;;;;19.52;8.93;;;;;;;;;;4863495;29;20061;-70
2022/06/27 09:16:03;;;;;;;16.70;7.43;;;;;;;;;;4894252;29;20064;-71
2022/06/27 09:18:36;;;;;;;20.67;8.38;;;;;;;;;;4848465;29;20053;-70
2022/06/27 09:21:09;;;;;;;17.63;8.77;;;;;;;;;;4894436;29;20096;-70
2022/06/27 09:24:01;;;;;;;19.83;9.07;;;;;;;;;;4878470;29;20057;-70
2022/06/27 09:26:34;;;;;;;18.77;8.43;;;;;;;;;;4801697;29;20099;-70
2022/06/27 09:29:08;;;;;;;20.73;7.85;;;;;;;;;;4802155;29;20066;-70
2022/06/27 09:31:45;;;;;;;19.13;8.13;;;;;;;;;;4814105;29;20073;-70
2022/06/27 09:34:24;;;;;;;20.17;9.00;;;;;;;;;;4823581;29;20059;-70
2022/06/27 09:37:01;;;;;;;18.55;9.25;;;;;;;;;;4823467;29;20078;-70
2022/06/27 09:39:36;;;;;;;21.38;8.82;;;;;;;;;;4823618;29;20054;-70
2022/06/27 09:42:16;;;;;;;17.75;8.73;;;;;;;;;;4823219;29;20047;-71
2022/06/27 09:44:47;;;;;;;22.95;8.93;;;;;;;;;;4805094;29;20051;-71
2022/06/27 09:47:26;;;;;;;18.15;8.63;;;;;;;;;;4805180;29;20062;-70
2022/06/27 09:49:59;;;;;;;18.60;8.23;;;;;;;;;;4805351;29;20059;-70
2022/06/27 09:52:30;;;;;;;27.02;9.38;;;;;;;;;;4805515;29;20490;-70
2022/06/27 09:55:04;;;;;;;19.08;9.00;;;;;;;;;;4771852;30;20401;-70
2022/06/27 09:57:36;;;;;;;17.67;8.25;;;;;;;;;;4786980;30;20051;-71
2022/06/27 10:00:08;;;;;;;21.17;7.78;;;;;;;;;;4786825;29;20412;-70
2022/06/27 10:02:41;;;;;;;20.40;8.52;;;;;;;;;;4789897;29;20059;-70
2022/06/27 10:05:17;;;;;;;17.60;8.70;;;;;;;;;;4857072;29;20054;-70
2022/06/27 10:07:59;;;;;;;25.17;9.02;;;;;;;;;;4859959;29;20053;-70
2022/06/27 10:10:31;;;;;;;20.75;8.57;;;;;;;;;;4859723;29;20061;-70
2022/06/27 10:13:05;;;;;;;22.00;9.40;;;;;;;;;;4859838;29;20062;-70
2022/06/27 10:15:40;;;;;;;19.92;9.23;;;;;;;;;;4859676;29;20109;-72
2022/06/27 10:18:10;;;;;;;23.48;9.40;;;;;;;;;;4859850;29;20514;-71
2022/06/27 10:20:42;;;;;;;21.83;9.48;;;;;;;;;;4822569;29;20073;-71
2022/06/27 10:23:18;;;;;;;19.77;9.10;;;;;;;;;;4837886;29;20058;-71
2022/06/27 10:25:49;;;;;;;25.80;9.55;;;;;;;;;;4840889;29;20054;-71
2022/06/27 10:28:22;;;;;;;19.17;8.85;;;;;;;;;;4841139;29;20443;-71
2022/06/27 10:31:00;;;;;;;21.38;8.85;;;;;;;;;;4797077;29;20100;-71
2022/06/27 10:33:30;;;;;;;18.77;8.70;;;;;;;;;;4856550;29;20057;-71
2022/06/27 10:36:17;;;;;;;27.75;8.20;;;;;;;;;;4813365;29;20057;-71
2022/06/27 10:38:50;;;;;;;18.85;7.95;;;;;;;;;;4843577;29;20494;-71
2022/06/27 10:41:20;;;;;;;17.23;8.38;;;;;;;;;;4859129;29;20065;-70
2022/06/27 10:43:59;;;;;;;19.58;8.15;;;;;;;;;;4843174;29;20064;-71
2022/06/27 10:46:29;;;;;;;19.27;7.38;;;;;;;;;;4822000;29;20106;-71
2022/06/27 10:48:59;;;;;;;18.52;7.95;;;;;;;;;;4807174;29;20058;-70
2022/06/27 10:51:32;;;;;;;16.33;8.00;;;;;;;;;;4792165;29;20055;-71
2022/06/27 10:54:05;;;;;;;15.52;7.38;;;;;;;;;;4822132;29;20073;-70
2022/06/27 10:56:43;;;;;;;16.38;7.95;;;;;;;;;;4822116;29;20061;-70
2022/06/27 10:59:13;;;;;;;17.35;7.32;;;;;;;;;;4825389;29;20053;-71
2022/06/27 11:02:05;;;;;;;18.98;8.20;;;;;;;;;;4846567;29;20056;-70
2022/06/27 11:04:38;;;;;;;16.95;7.35;;;;;;;;;;4877185;29;20064;-71
2022/06/27 11:07:09;;;;;;;20.13;8.10;;;;;;;;;;4877292;29;20065;-71
2022/06/27 11:09:43;;;;;;;16.50;7.85;;;;;;;;;;4877148;29;20064;-70
2022/06/27 11:12:19;;;;;;;18.55;8.68;;;;;;;;;;4877189;29;20061;-71
2022/06/27 11:14:58;;;;;;;28.65;9.57;;;;;;;;;;4861991;29;20057;-71
2022/06/27 11:17:31;;;;;;;18.48;9.02;;;;;;;;;;4847027;29;20057;-71
2022/06/27 11:20:25;;;;;;;20.42;8.23;;;;;;;;;;4877175;29;20057;-71
2022/06/27 11:23:11;;;;;;;14.63;7.85;;;;;;;;;;4807254;29;20584;-71
2022/06/27 11:25:49;;;;;;;18.13;8.27;;;;;;;;;;4840187;29;20053;-71
2022/06/27 11:34:00;;;;;;;14.70;7.13;;;;;;;;;;4839744;29;20058;-73
2022/06/27 11:36:31;;;;;;;16.67;8.63;;;;;;;;;;4839858;29;20053;-72
2022/06/27 11:39:02;;;;;;;17.38;8.50;;;;;;;;;;4839778;29;20046;-72
2022/06/27 11:41:36;;;;;;;15.18;7.68;;;;;;;;;;4839576;29;20066;-73
2022/06/27 11:44:09;;;;;;;17.88;7.25;;;;;;;;;;4794459;29;20567;-72
2022/06/27 11:46:46;;;;;;;12.52;5.88;;;;;;;;;;4824924;29;20062;-72
2022/06/27 11:49:26;;;;;;;15.25;7.47;;;;;;;;;;4821360;29;20054;-72
2022/06/27 11:52:05;;;;;;;16.10;6.82;;;;;;;;;;4776404;29;20066;-72
2022/06/27 11:54:44;;;;;;;13.98;7.88;;;;;;;;;;4821229;29;20223;-72
2022/06/27 11:57:33;;;;;;;12.60;5.13;;;;;;;;;;4821504;29;20058;-73
2022/06/27 12:00:08;;;;;;;9.38;4.40;;;;;;;;;;4819901;29;20068;-73
2022/06/27 12:02:44;;;;;;;10.35;4.13;;;;;;;;;;4858012;29;20049;-73
2022/06/27 12:05:22;;;;;;;8.73;4.05;;;;;;;;;;4857530;29;20057;-72
2022/06/27 12:08:14;;;;;;;10.45;4.53;;;;;;;;;;4856314;29;20061;-72
2022/06/27 12:13:42;;;;;;;8.90;3.95;;;;;;;;;;4844223;29;20065;-70
2022/06/27 12:16:13;;;;;;;12.13;4.63;;;;;;;;;;4839301;29;20054;-70
2022/06/27 12:18:46;;;;;;;10.07;4.45;;;;;;;;;;4851767;29;20064;-70
2022/06/27 12:21:16;;;;;;;10.50;4.80;;;;;;;;;;4857810;29;20557;-70
2022/06/27 12:23:47;;;;;;;11.02;4.57;;;;;;;;;;4796343;29;20069;-70
2022/06/27 12:26:17;;;;;;;9.75;4.18;;;;;;;;;;4848626;29;20068;-69
2022/06/27 12:28:50;;;;;;;8.15;4.28;;;;;;;;;;4887751;29;20057;-69
2022/06/27 12:31:21;;;;;;;7.63;3.38;;;;;;;;;;4876709;29;20060;-69
2022/06/27 12:33:51;;;;;;;11.10;4.35;;;;;;;;;;4876456;29;20425;-69
2022/06/27 12:36:22;;;;;;;7.45;3.97;;;;;;;;;;4861602;29;20421;-70
2022/06/27 12:38:52;;;;;;;7.78;3.97;;;;;;;;;;4879066;29;20060;-69
2022/06/27 12:41:22;;;;;;;8.80;4.00;;;;;;;;;;4892591;29;20064;-69
2022/06/27 12:43:53;;;;;;;7.43;3.67;;;;;;;;;;4888081;29;20056;-69
2022/06/27 12:46:24;;;;;;;9.35;3.90;;;;;;;;;;4884357;29;20060;-70
2022/06/27 12:49:15;;;;;;;11.77;4.10;;;;;;;;;;4862700;29;20076;-70
2022/06/27 12:51:47;;;;;;;8.35;3.72;;;;;;;;;;4875605;29;20493;-70
2022/06/27 12:54:17;;;;;;;9.02;4.22;;;;;;;;;;4833216;29;20066;-70
2022/06/27 12:56:48;;;;;;;13.23;7.00;;;;;;;;;;4795742;29;20058;-71
2022/06/27 12:59:18;;;;;;;8.88;4.45;;;;;;;;;;4834445;29;20077;-70
2022/06/27 13:01:50;;;;;;;7.75;3.72;;;;;;;;;;4838892;29;20572;-70
2022/06/27 13:04:21;;;;;;;8.63;3.97;;;;;;;;;;4809527;29;20430;-70
2022/06/27 13:06:51;;;;;;;7.95;3.50;;;;;;;;;;4839166;29;20062;-72
2022/06/27 13:09:22;;;;;;;7.63;3.63;;;;;;;;;;4792233;29;20063;-71
2022/06/27 13:11:53;;;;;;;8.75;3.85;;;;;;;;;;4798300;29;20412;-70
2022/06/27 13:14:23;;;;;;;8.48;4.40;;;;;;;;;;4802193;29;20093;-70
2022/06/27 13:16:54;;;;;;;8.85;3.72;;;;;;;;;;4767185;30;20062;-70
2022/06/27 13:19:24;;;;;;;8.73;3.83;;;;;;;;;;4753041;30;20072;-70
2022/06/27 13:21:55;;;;;;;8.13;3.72;;;;;;;;;;4765915;30;20063;-71
2022/06/27 13:24:26;;;;;;;7.35;3.63;;;;;;;;;;4746441;30;20064;-70
2022/06/27 13:26:57;;;;;;;10.57;3.70;;;;;;;;;;4785500;30;20058;-70
2022/06/27 13:29:27;;;;;;;9.55;4.05;;;;;;;;;;4771451;30;20063;-70
2022/06/27 13:31:58;;;;;;;6.05;3.30;;;;;;;;;;4755417;30;20066;-70
2022/06/27 13:34:30;;;;;;;12.98;5.50;;;;;;;;;;4783933;30;20479;-70
2022/06/27 13:37:20;;;;;;;;;;;;;;;;;;4771649;30;20535;-71
2022/06/27 13:39:50;;;;;;;7.28;3.60;;;;;;;;;;4786328;30;19936;-70
2022/06/27 13:42:21;;;;;;;7.47;3.90;;;;;;;;;;4785286;29;20063;-70
2022/06/27 13:44:53;;;;;;;10.13;4.53;;;;;;;;;;4807424;29;20066;-70
2022/06/27 13:47:25;;;;;;;7.70;3.92;;;;;;;;;;4855867;29;20060;-69
2022/06/27 13:49:56;;;;;;;9.10;3.63;;;;;;;;;;4845211;29;20553;-70
2022/06/27 13:52:28;;;;;;;8.25;3.83;;;;;;;;;;4875874;29;20052;-70
2022/06/27 13:54:59;;;;;;;8.38;3.42;;;;;;;;;;4885924;29;20072;-69
2022/06/27 13:57:30;;;;;;;10.38;3.90;;;;;;;;;;4896090;29;20052;-69
2022/06/27 14:00:00;;;;;;;9.40;4.18;;;;;;;;;;4858686;29;20511;-70
2022/06/27 14:02:32;;;;;;;7.15;3.63;;;;;;;;;;4842739;29;20436;-71
2022/06/27 14:05:05;;;;;;;6.60;3.40;;;;;;;;;;4858149;29;20049;-71
2022/06/27 14:07:36;;;;;;;9.48;3.78;;;;;;;;;;4856053;29;20166;-71
2022/06/27 14:10:09;;;;;;;7.85;3.40;;;;;;;;;;4858550;29;20065;-71
2022/06/27 14:12:44;;;;;;;6.60;2.67;;;;;;;;;;4828804;29;20425;-72
2022/06/27 14:15:23;;;;;;;7.70;3.88;;;;;;;;;;4859317;29;20166;-71
2022/06/27 14:17:55;;;;;;;8.00;3.90;;;;;;;;;;4858270;29;20158;-71
2022/06/27 14:20:25;;;;;;;9.80;4.80;;;;;;;;;;4858522;29;20094;-72
2022/06/27 14:22:56;;;;;;;8.13;3.42;;;;;;;;;;4786632;29;20042;-71
2022/06/27 14:25:27;;;;;;;9.43;3.92;;;;;;;;;;4821547;29;20515;-73
2022/06/27 14:28:00;;;;;;;8.00;3.88;;;;;;;;;;4791998;29;20054;-73
2022/06/27 14:30:31;;;;;;;7.03;3.50;;;;;;;;;;4832566;29;20056;-74
2022/06/27 14:33:02;;;;;;;7.45;3.78;;;;;;;;;;4862117;29;20064;-73
2022/06/27 14:35:49;;;;;;;8.93;3.63;;;;;;;;;;4877122;29;20199;-72
2022/06/27 14:38:19;;;;;;;6.53;3.63;;;;;;;;;;4861980;29;20049;-72
2022/06/27 14:40:49;;;;;;;5.65;3.00;;;;;;;;;;4877756;29;20624;-72
2022/06/27 14:43:20;;;;;;;6.28;3.30;;;;;;;;;;4861834;29;20072;-72
2022/06/27 14:45:51;;;;;;;10.68;5.43;;;;;;;;;;4877558;29;20072;-72
2022/06/27 14:48:22;;;;;;;6.53;3.35;;;;;;;;;;4877165;29;20057;-72
2022/06/27 14:50:53;;;;;;;7.95;3.60;;;;;;;;;;4846332;29;20049;-71
2022/06/27 14:53:23;;;;;;;7.60;3.70;;;;;;;;;;4862233;29;20458;-72
2022/06/27 14:55:57;;;;;;;6.15;3.33;;;;;;;;;;4845870;29;20056;-71
2022/06/27 14:58:27;;;;;;;6.72;3.17;;;;;;;;;;4895202;29;20052;-71
2022/06/27 15:00:59;;;;;;;6.97;4.13;;;;;;;;;;4819230;29;20060;-71
2022/06/27 15:03:29;;;;;;;;;;;;;;;;;;4839740;29;20581;-70
2022/06/27 15:06:00;;;;;;;6.25;3.20;;;;;;;;;;4879999;29;19931;-72
2022/06/27 15:08:30;;;;;;;8.30;3.30;;;;;;;;;;4868535;29;20429;-71
2022/06/27 15:13:49;;;;;;;6.07;2.95;;;;;;;;;;4839492;29;20054;-71
2022/06/27 15:16:22;;;;;;;5.65;2.92;;;;;;;;;;4839951;29;20069;-70
2022/06/27 15:18:53;;;;;;;6.78;3.65;;;;;;;;;;4839595;29;20073;-71
2022/06/27 15:21:23;;;;;;;6.55;3.17;;;;;;;;;;4839863;29;20054;-69